Gibsonton, FL (33534)

3:40 PM EDT on March 27, 2015 (GMT -0400)
FERN HILL DR | | Change Station
CLOSE
Current Station
Personal Weather Station
Location: Riverview, FL
Elevation: 33 ft
Nearby Weather Stations
Active Advisory: Beach Hazard Statement

Elev 33 ft 27.84 °N, 82.34 °W | Updated 3 minutes ago

Overcast
Overcast
72.6 °F
Feels Like 71 °F
N
4.0
Wind Variable Wind from WNW
Gusts 9.0 mph

Today
High -- | Low -- °F
--% Chance of Precip.
Yesterday
High -- | Low -- °F
Precip. -- in
7:25 AM 7:44 PM
First Quarter, 55% visible
Pressure 29.85 in
Visibility 7.0 miles
Clouds Scattered Clouds 1900 ft
Scattered Clouds 3300 ft
Overcast 4900 ft
Heat Index 71 °F
Dew Point 69 °F
Humidity 88%
Rainfall 0.00 in
Snow Depth Not available.
UV 3 out of 12
Pollen 5.00 out of 12
Air Quality Not available.
Flu Activity Not available.
METAR KTPF 271935Z AUTO 32008G23KT 7SM -RA SCT019 SCT033 OVC049 22/20 A2985 RMK AO2 P0001

More Conditions Fewer Conditions

Pressure 29.85 in
Visibility 7.0 miles
Clouds Scattered Clouds 1900 ft
Scattered Clouds 3300 ft
Overcast 4900 ft
Heat Index 71 °F
Dew Point 69 °F
Humidity 88%
Rainfall 0.00 in
Snow Depth Not available.
UV 3 out of 12
Pollen 5.00 out of 12
Air Quality Not available.
Flu Activity Not available.
METAR KTPF 271935Z AUTO 32008G23KT 7SM -RA SCT019 SCT033 OVC049 22/20 A2985 RMK AO2 P0001

More Conditions Fewer Conditions

10-Day Weather Forecast

Almanac

Astronomy

Mar. 27, 2015 Rise Set
Actual Time
Civil Twilight
Nautical Twilight
Astronomical Twilight
Moon
Length of Visible Light
Length of Day
Tomorrow will be .
, % of the Moon is Illuminated

Today's Extremes

State Highs State Lows

Community

WunderPhotos

Upload Photos

1,808,799 photos uploaded!

WunderBlogs® & News

Nearby

Air Quality

  Air Quality AQ Index Pollutant
Not available.

Snow Depth

Station Depth Elevation

Earthquake Activity

City Distance Mag. Time & Date
Minimum magnitude displayed is 2.5.

Coastal Water Temperatures

Place Temperature

Stations

Nearby Weather Stations

Station Location Temp. Windchill Dew Point Humidity Wind Precip. Elev Updated Type
                   
Beach Hazard Statement
Statement as of 5:14 AM EDT on March 27, 2015

... Beach hazards statement in effect from noon EDT today through
this evening...

The National Weather Service in Tampa Bay Ruskin has issued a
beach hazards statement for a moderate risk of rip currents which
is in effect from noon EDT today through this evening.

* Hazards... moderate risk of rip currents.

* Timing... from noon through this evening.

* Location... area beaches from Pinellas to Lee counties.

Precautionary/preparedness actions...

A moderate risk of rip currents means wind and or wave conditions
support stronger or more frequent rip currents. Always have a
flotation device with you in the water.



Http://www.Weather.Gov/Tampa